Time;durP1;ratioP1;P1;durP2;ratioP2;P2;SDS_P1;SDS_P2;PMS_P1;PMS_P2;Temp;Humidity;BMP_temperature;BMP_pressure;BME280_temperature;BME280_humidity;BME280_pressure;Samples;Min_cycle;Max_cycle;Signal;HPM_P1;HPM_P2
2023/07/04 00:00:25;;;;;;;11.40;7.38;;;;;;;;;;5074361;28;20325;-65
2023/07/04 00:02:51;;;;;;;13.00;8.52;;;;;;;;;;5074023;28;20033;-65
2023/07/04 00:05:16;;;;;;;13.93;8.65;;;;;;;;;;5056215;28;20040;-65
2023/07/04 00:07:42;;;;;;;10.77;7.53;;;;;;;;;;5074064;28;20103;-65
2023/07/04 00:10:08;;;;;;;12.60;8.90;;;;;;;;;;5073948;28;20397;-65
2023/07/04 00:12:33;;;;;;;16.05;9.63;;;;;;;;;;5055913;28;20119;-65
2023/07/04 00:14:58;;;;;;;16.50;9.65;;;;;;;;;;5055950;28;20103;-65
2023/07/04 00:17:24;;;;;;;10.98;8.35;;;;;;;;;;5056035;28;20472;-65
2023/07/04 00:19:50;;;;;;;13.90;8.32;;;;;;;;;;5074026;28;20020;-65
2023/07/04 00:22:16;;;;;;;11.85;7.75;;;;;;;;;;5055935;28;20055;-65
2023/07/04 00:24:41;;;;;;;9.63;7.03;;;;;;;;;;5073173;28;20476;-65
2023/07/04 00:27:07;;;;;;;13.25;8.52;;;;;;;;;;5073831;28;20032;-65
2023/07/04 00:29:32;;;;;;;11.70;7.45;;;;;;;;;;5038925;28;20063;-65
2023/07/04 00:32:06;;;;;;;12.90;7.60;;;;;;;;;;5073634;28;20029;-65
2023/07/04 00:34:31;;;;;;;12.93;8.48;;;;;;;;;;5055934;28;20427;-65
2023/07/04 00:36:59;;;;;;;10.02;7.53;;;;;;;;;;5039080;28;20029;-65
2023/07/04 00:39:25;;;;;;;11.65;8.10;;;;;;;;;;5073505;28;20033;-65
2023/07/04 00:41:51;;;;;;;12.40;9.55;;;;;;;;;;5038963;28;20029;-65
2023/07/04 00:44:22;;;;;;;12.27;7.85;;;;;;;;;;5055604;28;20127;-65
2023/07/04 00:46:54;;;;;;;11.70;7.38;;;;;;;;;;5073996;28;20401;-65
2023/07/04 00:49:22;;;;;;;10.80;6.97;;;;;;;;;;5073576;28;20104;-65
2023/07/04 00:52:03;;;;;;;10.80;8.20;;;;;;;;;;5073536;28;20016;-64
2023/07/04 00:54:31;;;;;;;10.60;8.38;;;;;;;;;;5055404;28;20032;-65
2023/07/04 00:56:58;;;;;;;9.75;7.95;;;;;;;;;;5051835;28;20037;-65
2023/07/04 00:59:25;;;;;;;11.40;9.02;;;;;;;;;;5052329;28;20029;-65
2023/07/04 01:01:51;;;;;;;16.40;9.30;;;;;;;;;;5051973;28;20032;-65
2023/07/04 01:04:17;;;;;;;8.40;6.60;;;;;;;;;;5053556;28;20045;-65
2023/07/04 01:06:47;;;;;;;9.50;6.82;;;;;;;;;;5052114;28;20067;-65
2023/07/04 01:09:17;;;;;;;11.18;7.82;;;;;;;;;;5051822;28;20486;-65
2023/07/04 01:11:44;;;;;;;10.65;8.00;;;;;;;;;;5051978;28;20163;-65
2023/07/04 01:14:17;;;;;;;10.20;7.63;;;;;;;;;;5054733;28;20028;-64
2023/07/04 01:16:43;;;;;;;10.77;8.60;;;;;;;;;;5073597;28;20121;-64
2023/07/04 01:19:09;;;;;;;12.75;7.93;;;;;;;;;;5073085;28;20082;-64
2023/07/04 01:21:35;;;;;;;11.48;7.57;;;;;;;;;;5073161;28;20056;-64
2023/07/04 01:24:12;;;;;;;13.27;8.13;;;;;;;;;;5058886;28;20047;-64
2023/07/04 01:26:39;;;;;;;11.02;7.45;;;;;;;;;;5076870;28;20025;-64
2023/07/04 01:29:07;;;;;;;11.52;8.00;;;;;;;;;;5075341;28;20029;-64
2023/07/04 01:31:35;;;;;;;12.20;8.25;;;;;;;;;;5076950;28;20111;-64
2023/07/04 01:34:02;;;;;;;12.50;7.13;;;;;;;;;;5076346;28;20051;-64
2023/07/04 01:36:30;;;;;;;10.82;6.47;;;;;;;;;;5075331;28;20020;-64
2023/07/04 01:38:55;;;;;;;10.13;7.20;;;;;;;;;;5074794;28;20021;-64
2023/07/04 01:41:24;;;;;;;8.02;6.85;;;;;;;;;;5076202;28;20025;-64
2023/07/04 01:43:54;;;;;;;12.80;6.05;;;;;;;;;;5075405;28;20029;-64
2023/07/04 01:46:19;;;;;;;10.70;7.15;;;;;;;;;;5058722;28;20032;-64
2023/07/04 01:48:47;;;;;;;11.73;7.20;;;;;;;;;;5076143;28;20104;-64
2023/07/04 01:51:12;;;;;;;10.68;6.40;;;;;;;;;;5076283;28;20474;-64
2023/07/04 01:53:38;;;;;;;12.60;6.88;;;;;;;;;;5076190;28;20024;-64
2023/07/04 01:56:03;;;;;;;10.15;7.57;;;;;;;;;;5080748;28;20044;-64
2023/07/04 01:58:28;;;;;;;8.75;6.95;;;;;;;;;;5077970;28;20024;-64
2023/07/04 02:00:55;;;;;;;8.48;6.35;;;;;;;;;;5096416;28;20479;-64
2023/07/04 02:03:20;;;;;;;11.50;6.78;;;;;;;;;;5078199;28;20035;-64
2023/07/04 02:05:46;;;;;;;12.55;7.30;;;;;;;;;;5077769;28;20391;-64
2023/07/04 02:08:11;;;;;;;10.10;7.07;;;;;;;;;;5096313;28;20149;-63
2023/07/04 02:10:37;;;;;;;10.98;7.03;;;;;;;;;;5096349;28;20359;-64
2023/07/04 02:13:02;;;;;;;12.13;7.95;;;;;;;;;;5077934;28;20051;-65
2023/07/04 02:15:30;;;;;;;9.55;7.00;;;;;;;;;;5077629;28;20089;-64
2023/07/04 02:17:56;;;;;;;12.35;7.63;;;;;;;;;;5095999;28;20533;-64
2023/07/04 02:26:37;;;;;;;10.65;7.13;;;;;;;;;;5113724;28;20497;-60
2023/07/04 02:29:03;;;;;;;12.95;7.82;;;;;;;;;;5097455;28;20114;-60
2023/07/04 02:31:30;;;;;;;12.68;7.68;;;;;;;;;;5115717;28;20055;-60
2023/07/04 02:34:26;;;;;;;13.40;7.38;;;;;;;;;;5105220;22;20139;-60
2023/07/04 02:36:52;;;;;;;15.70;8.50;;;;;;;;;;4992636;28;20428;-64
2023/07/04 02:39:17;;;;;;;16.58;9.38;;;;;;;;;;4995984;28;20037;-64
2023/07/04 02:41:43;;;;;;;12.45;7.90;;;;;;;;;;4978346;28;20366;-64
2023/07/04 02:44:08;;;;;;;14.18;7.38;;;;;;;;;;4995527;28;20081;-64
2023/07/04 02:46:34;;;;;;;12.23;7.78;;;;;;;;;;4994306;28;20089;-64
2023/07/04 02:49:05;;;;;;;10.27;7.35;;;;;;;;;;4994192;28;20040;-64
2023/07/04 02:51:32;;;;;;;11.40;6.82;;;;;;;;;;4994284;28;20022;-64
2023/07/04 02:53:58;;;;;;;10.60;6.63;;;;;;;;;;4994096;28;20030;-64
2023/07/04 02:56:24;;;;;;;12.00;8.13;;;;;;;;;;4993999;28;20015;-64
2023/07/04 02:58:49;;;;;;;12.63;8.02;;;;;;;;;;4994038;28;20048;-64
2023/07/04 03:01:15;;;;;;;12.15;8.35;;;;;;;;;;4995238;28;20023;-65
2023/07/04 03:03:41;;;;;;;11.18;8.18;;;;;;;;;;4993960;28;20029;-65
2023/07/04 03:06:07;;;;;;;11.15;7.38;;;;;;;;;;4993865;28;20122;-65
2023/07/04 03:08:34;;;;;;;12.65;8.50;;;;;;;;;;4993811;28;20027;-64
2023/07/04 03:11:01;;;;;;;9.35;7.28;;;;;;;;;;4993587;28;20497;-65
2023/07/04 03:13:30;;;;;;;13.07;7.85;;;;;;;;;;4993736;28;20022;-65
2023/07/04 03:15:56;;;;;;;14.00;7.82;;;;;;;;;;4993693;28;20113;-65
2023/07/04 03:18:22;;;;;;;14.25;8.02;;;;;;;;;;4993498;28;20553;-65
2023/07/04 03:20:48;;;;;;;11.55;7.93;;;;;;;;;;4993628;28;20030;-65
2023/07/04 03:23:15;;;;;;;15.13;7.93;;;;;;;;;;4995055;28;20035;-65
2023/07/04 03:25:40;;;;;;;13.10;7.63;;;;;;;;;;4993873;28;20447;-65
2023/07/04 03:28:06;;;;;;;11.52;7.50;;;;;;;;;;4995071;28;20057;-65
2023/07/04 03:30:32;;;;;;;11.15;7.07;;;;;;;;;;4993064;28;20030;-65
2023/07/04 03:33:05;;;;;;;12.25;7.50;;;;;;;;;;4995221;28;20359;-65
2023/07/04 03:35:31;;;;;;;9.98;7.43;;;;;;;;;;4995006;28;20092;-65
2023/07/04 03:37:56;;;;;;;17.17;9.32;;;;;;;;;;4993941;28;20065;-65
2023/07/04 03:40:22;;;;;;;15.68;9.93;;;;;;;;;;4994933;28;20466;-65
2023/07/04 03:42:47;;;;;;;17.17;9.32;;;;;;;;;;4977112;28;20537;-65
2023/07/04 03:45:14;;;;;;;11.07;7.75;;;;;;;;;;4993485;28;20034;-65
2023/07/04 03:47:39;;;;;;;13.85;7.78;;;;;;;;;;4995046;28;20109;-65
2023/07/04 03:50:06;;;;;;;13.55;7.57;;;;;;;;;;4994973;28;20038;-65
2023/07/04 03:52:31;;;;;;;10.75;7.63;;;;;;;;;;4994487;28;20401;-66
2023/07/04 03:54:57;;;;;;;10.40;7.22;;;;;;;;;;4977487;28;20109;-65
2023/07/04 03:57:22;;;;;;;9.57;6.88;;;;;;;;;;4993581;28;20085;-65
2023/07/04 03:59:48;;;;;;;10.35;6.80;;;;;;;;;;4994931;28;20026;-65
2023/07/04 04:02:13;;;;;;;12.27;7.22;;;;;;;;;;4994745;28;20046;-64
2023/07/04 04:04:41;;;;;;;12.65;7.95;;;;;;;;;;4994296;28;20045;-64
2023/07/04 04:07:07;;;;;;;11.68;7.72;;;;;;;;;;4993134;28;20105;-64
2023/07/04 04:09:36;;;;;;;12.85;7.80;;;;;;;;;;4994700;28;20030;-65
2023/07/04 04:12:02;;;;;;;13.23;7.82;;;;;;;;;;4977132;28;20062;-65
2023/07/04 04:14:28;;;;;;;15.93;8.90;;;;;;;;;;4994339;28;20053;-65
2023/07/04 04:16:54;;;;;;;15.40;8.68;;;;;;;;;;4994469;28;20121;-65
2023/07/04 04:19:19;;;;;;;15.18;9.43;;;;;;;;;;4993218;28;20060;-64
2023/07/04 04:21:44;;;;;;;16.85;8.23;;;;;;;;;;4994247;28;20492;-65
2023/07/04 04:24:10;;;;;;;15.02;8.48;;;;;;;;;;4990114;28;20062;-65
2023/07/04 04:26:38;;;;;;;14.85;9.30;;;;;;;;;;4993610;28;20129;-64
2023/07/04 04:29:07;;;;;;;14.50;8.85;;;;;;;;;;4993970;28;20101;-61
2023/07/04 04:31:38;;;;;;;13.02;7.65;;;;;;;;;;4993775;28;20062;-63
2023/07/04 04:34:04;;;;;;;15.57;8.00;;;;;;;;;;4993974;28;20389;-65
2023/07/04 04:36:30;;;;;;;13.93;8.88;;;;;;;;;;4992676;28;20038;-65
2023/07/04 04:38:56;;;;;;;14.07;8.32;;;;;;;;;;4994166;28;20026;-64
2023/07/04 04:41:21;;;;;;;18.42;9.48;;;;;;;;;;4976867;28;20030;-62
2023/07/04 04:43:58;;;;;;;13.20;10.48;;;;;;;;;;4994301;28;20027;-67
2023/07/04 04:46:23;;;;;;;13.55;10.05;;;;;;;;;;4994419;28;20053;-67
2023/07/04 04:48:50;;;;;;;16.92;10.30;;;;;;;;;;4994049;28;20027;-68
2023/07/04 04:51:16;;;;;;;17.10;10.73;;;;;;;;;;4993924;28;20034;-68
2023/07/04 04:53:48;;;;;;;14.70;9.43;;;;;;;;;;4976579;28;20030;-68
2023/07/04 04:56:14;;;;;;;14.90;10.65;;;;;;;;;;4994028;28;20425;-69
2023/07/04 04:58:43;;;;;;;21.27;11.43;;;;;;;;;;4997205;28;20057;-68
2023/07/04 05:01:17;;;;;;;16.92;9.52;;;;;;;;;;4997586;28;20046;-68
2023/07/04 05:03:43;;;;;;;16.23;10.60;;;;;;;;;;4997102;28;20038;-68
2023/07/04 05:06:08;;;;;;;19.25;10.63;;;;;;;;;;4997384;28;20034;-67
2023/07/04 05:08:34;;;;;;;17.33;11.00;;;;;;;;;;4980192;28;20026;-67
2023/07/04 05:11:05;;;;;;;15.68;10.75;;;;;;;;;;4997635;28;20577;-67
2023/07/04 05:13:34;;;;;;;17.38;10.38;;;;;;;;;;4997312;28;20080;-68
2023/07/04 05:16:04;;;;;;;15.48;10.75;;;;;;;;;;4997141;28;20034;-68
2023/07/04 05:18:30;;;;;;;20.08;11.13;;;;;;;;;;4997232;28;20070;-69
2023/07/04 05:21:06;;;;;;;17.85;10.90;;;;;;;;;;4979502;28;20026;-75
2023/07/04 05:23:36;;;;;;;15.68;10.57;;;;;;;;;;4979730;28;20052;-72
2023/07/04 05:26:03;;;;;;;16.15;8.98;;;;;;;;;;4979618;28;20054;-70
2023/07/04 05:28:29;;;;;;;16.85;10.02;;;;;;;;;;4979397;28;20605;-70
2023/07/04 05:30:58;;;;;;;18.20;9.68;;;;;;;;;;4996603;28;20100;-69
2023/07/04 05:33:24;;;;;;;16.93;10.93;;;;;;;;;;4990473;28;20039;-71
2023/07/04 05:35:49;;;;;;;17.27;9.48;;;;;;;;;;4990372;28;20054;-69
2023/07/04 05:38:14;;;;;;;18.15;10.20;;;;;;;;;;4975418;28;20381;-69
2023/07/04 05:40:43;;;;;;;20.40;10.73;;;;;;;;;;4992970;28;20073;-65
2023/07/04 05:43:08;;;;;;;15.00;10.27;;;;;;;;;;4976263;28;20425;-66
2023/07/04 05:45:36;;;;;;;20.38;11.25;;;;;;;;;;4975689;28;20038;-65
2023/07/04 05:48:01;;;;;;;14.57;10.20;;;;;;;;;;4994419;28;20477;-65
2023/07/04 05:50:26;;;;;;;17.27;9.88;;;;;;;;;;4994393;28;20055;-65
2023/07/04 05:52:52;;;;;;;17.60;9.27;;;;;;;;;;4987718;28;20029;-65
2023/07/04 05:55:17;;;;;;;16.60;9.57;;;;;;;;;;4975720;28;20090;-65
2023/07/04 05:57:43;;;;;;;16.02;9.50;;;;;;;;;;4958370;28;20078;-65
2023/07/04 06:00:10;;;;;;;17.08;9.05;;;;;;;;;;4975365;28;20526;-65
2023/07/04 06:02:39;;;;;;;15.02;8.98;;;;;;;;;;4976045;28;20133;-66
2023/07/04 06:05:05;;;;;;;17.15;9.02;;;;;;;;;;4956854;29;20114;-65
2023/07/04 06:07:30;;;;;;;16.92;9.32;;;;;;;;;;4957057;28;20059;-65
2023/07/04 06:09:56;;;;;;;13.70;9.10;;;;;;;;;;4960509;28;20023;-66
2023/07/04 06:12:21;;;;;;;19.38;9.63;;;;;;;;;;4975956;28;20077;-65
2023/07/04 06:14:48;;;;;;;13.77;9.45;;;;;;;;;;4975326;28;20035;-65
2023/07/04 06:17:14;;;;;;;15.65;9.88;;;;;;;;;;4942280;28;20034;-65
2023/07/04 06:19:40;;;;;;;13.98;8.75;;;;;;;;;;4975370;28;20537;-65
2023/07/04 06:22:07;;;;;;;18.45;9.82;;;;;;;;;;4976113;28;20031;-65
2023/07/04 06:24:32;;;;;;;17.77;10.32;;;;;;;;;;4975587;28;20097;-65
2023/07/04 06:26:58;;;;;;;18.00;9.82;;;;;;;;;;4975948;28;20023;-65
2023/07/04 06:29:23;;;;;;;17.52;9.90;;;;;;;;;;4975144;28;20562;-65
2023/07/04 06:31:49;;;;;;;19.75;10.50;;;;;;;;;;4974697;28;20042;-66
2023/07/04 06:34:14;;;;;;;18.55;10.25;;;;;;;;;;4958662;28;20033;-66
2023/07/04 06:36:40;;;;;;;15.35;9.27;;;;;;;;;;4992750;28;20043;-66
2023/07/04 06:39:05;;;;;;;13.48;9.05;;;;;;;;;;4995223;28;20032;-66
2023/07/04 06:41:31;;;;;;;14.98;9.18;;;;;;;;;;4977925;28;20117;-65
2023/07/04 06:44:04;;;;;;;15.43;9.98;;;;;;;;;;4995608;28;20081;-65
2023/07/04 06:46:30;;;;;;;18.60;10.85;;;;;;;;;;4995358;28;20038;-65
2023/07/04 06:48:55;;;;;;;18.95;10.13;;;;;;;;;;4976738;28;20030;-66
2023/07/04 06:51:21;;;;;;;19.58;10.82;;;;;;;;;;4994086;28;20081;-65
2023/07/04 06:53:46;;;;;;;16.02;7.75;;;;;;;;;;4994521;28;20033;-66
2023/07/04 06:56:12;;;;;;;14.73;8.05;;;;;;;;;;4976981;28;20038;-65
2023/07/04 06:58:41;;;;;;;14.88;7.93;;;;;;;;;;4976796;28;20034;-66
2023/07/04 07:01:07;;;;;;;11.75;7.25;;;;;;;;;;4977600;28;20035;-65
2023/07/04 07:03:33;;;;;;;7.68;5.45;;;;;;;;;;4994807;28;20466;-66
2023/07/04 07:06:02;;;;;;;12.35;6.68;;;;;;;;;;4994780;28;20027;-65
2023/07/04 07:08:28;;;;;;;12.90;7.13;;;;;;;;;;4994182;28;20030;-65
2023/07/04 07:10:55;;;;;;;13.88;8.00;;;;;;;;;;4993753;28;20014;-65
2023/07/04 07:13:21;;;;;;;13.15;6.93;;;;;;;;;;4976289;28;20066;-66
2023/07/04 07:15:46;;;;;;;16.23;6.85;;;;;;;;;;4993613;28;20068;-65
2023/07/04 07:18:11;;;;;;;14.52;7.80;;;;;;;;;;4993653;28;20038;-65
2023/07/04 07:20:36;;;;;;;16.63;8.70;;;;;;;;;;4993092;28;20030;-66
2023/07/04 07:23:02;;;;;;;16.73;7.28;;;;;;;;;;4993672;28;20483;-66
2023/07/04 07:25:27;;;;;;;13.88;6.95;;;;;;;;;;4993434;28;20482;-65
2023/07/04 07:27:52;;;;;;;12.13;7.25;;;;;;;;;;4976174;28;20041;-65
2023/07/04 07:30:18;;;;;;;10.95;6.97;;;;;;;;;;4979364;28;20497;-69
2023/07/04 07:32:43;;;;;;;9.13;5.75;;;;;;;;;;4997635;28;20026;-70
2023/07/04 07:35:10;;;;;;;10.35;5.63;;;;;;;;;;4997292;28;20054;-70
2023/07/04 07:37:38;;;;;;;9.90;5.78;;;;;;;;;;4984917;28;20018;-66
2023/07/04 07:40:04;;;;;;;11.10;5.68;;;;;;;;;;4977959;28;20393;-66
2023/07/04 07:42:30;;;;;;;7.55;5.50;;;;;;;;;;4993311;28;20096;-65
2023/07/04 07:44:55;;;;;;;7.35;4.70;;;;;;;;;;4993235;28;20038;-66
2023/07/04 07:47:21;;;;;;;10.23;4.85;;;;;;;;;;4993295;28;20478;-66
2023/07/04 07:49:46;;;;;;;10.45;5.72;;;;;;;;;;4992997;28;20081;-65
2023/07/04 07:52:12;;;;;;;8.00;4.65;;;;;;;;;;4993134;28;20106;-65
2023/07/04 07:54:37;;;;;;;6.38;4.20;;;;;;;;;;4993087;28;20042;-65
2023/07/04 07:57:02;;;;;;;8.52;5.07;;;;;;;;;;4975945;28;20030;-66
2023/07/04 07:59:28;;;;;;;13.27;5.53;;;;;;;;;;4975575;28;20390;-66
2023/07/04 08:01:54;;;;;;;8.82;5.20;;;;;;;;;;4992986;28;20406;-66
2023/07/04 08:04:19;;;;;;;8.23;4.80;;;;;;;;;;4992890;28;20022;-66
2023/07/04 08:06:45;;;;;;;5.75;3.97;;;;;;;;;;4975455;28;20490;-65
2023/07/04 08:09:13;;;;;;;8.57;4.35;;;;;;;;;;4975606;28;20033;-66
2023/07/04 08:11:38;;;;;;;11.50;4.00;;;;;;;;;;4975639;28;20039;-66
2023/07/04 08:14:04;;;;;;;9.57;5.10;;;;;;;;;;4992804;28;20045;-66
2023/07/04 08:16:30;;;;;;;8.23;5.07;;;;;;;;;;4993119;28;20019;-66
2023/07/04 08:18:59;;;;;;;7.78;4.82;;;;;;;;;;4992812;28;20042;-65
2023/07/04 08:21:26;;;;;;;9.05;4.65;;;;;;;;;;4992709;28;20042;-65
2023/07/04 08:23:51;;;;;;;7.78;4.00;;;;;;;;;;4975613;28;20066;-66
2023/07/04 08:26:18;;;;;;;6.90;3.78;;;;;;;;;;4992701;28;20063;-66
2023/07/04 08:28:44;;;;;;;8.77;5.03;;;;;;;;;;4975334;28;20030;-66
2023/07/04 08:31:10;;;;;;;9.43;5.20;;;;;;;;;;4992925;28;20471;-69
2023/07/04 08:33:36;;;;;;;11.02;5.10;;;;;;;;;;4996237;28;20129;-66
2023/07/04 08:36:06;;;;;;;7.50;4.97;;;;;;;;;;4979830;28;20132;-66
2023/07/04 08:38:32;;;;;;;8.82;4.97;;;;;;;;;;4980142;28;20035;-65
2023/07/04 08:40:58;;;;;;;8.05;4.95;;;;;;;;;;4996870;28;20056;-66
2023/07/04 08:43:41;;;;;;;11.98;5.57;;;;;;;;;;4996575;28;20482;-66
2023/07/04 08:46:09;;;;;;;8.32;5.10;;;;;;;;;;4996473;28;20454;-69
2023/07/04 08:48:35;;;;;;;9.70;5.38;;;;;;;;;;4996884;28;20026;-70
2023/07/04 08:51:02;;;;;;;12.10;4.07;;;;;;;;;;4997287;28;20445;-70
2023/07/04 08:53:28;;;;;;;6.20;4.00;;;;;;;;;;4996148;28;20113;-70
2023/07/04 08:56:23;;;;;;;7.63;4.07;;;;;;;;;;4996397;28;20052;-70
2023/07/04 08:58:56;;;;;;;5.80;3.88;;;;;;;;;;4945800;28;20139;-69
2023/07/04 09:01:30;;;;;;;5.22;3.60;;;;;;;;;;4995658;28;20478;-69
2023/07/04 09:04:01;;;;;;;6.68;3.72;;;;;;;;;;4990950;28;20111;-69
2023/07/04 09:06:33;;;;;;;5.38;3.42;;;;;;;;;;4996620;28;20057;-69
2023/07/04 09:09:10;;;;;;;7.60;3.40;;;;;;;;;;4996426;28;20113;-71
2023/07/04 09:11:36;;;;;;;5.40;3.35;;;;;;;;;;4979045;28;20494;-65
2023/07/04 09:14:21;;;;;;;4.22;3.50;;;;;;;;;;4996570;28;20026;-65
2023/07/04 09:16:50;;;;;;;6.85;4.03;;;;;;;;;;4996607;28;20030;-65
2023/07/04 09:19:19;;;;;;;7.38;3.75;;;;;;;;;;4996883;28;20339;-65
2023/07/04 09:21:44;;;;;;;4.82;3.85;;;;;;;;;;4996730;28;20058;-65
2023/07/04 09:24:10;;;;;;;6.18;3.85;;;;;;;;;;4996817;28;20058;-69
2023/07/04 09:26:44;;;;;;;4.28;3.78;;;;;;;;;;4996842;28;20386;-69
2023/07/04 09:29:10;;;;;;;5.78;3.95;;;;;;;;;;4978978;28;20030;-69
2023/07/04 09:31:37;;;;;;;5.57;3.50;;;;;;;;;;4995829;28;20043;-69
2023/07/04 09:34:08;;;;;;;10.65;4.10;;;;;;;;;;4995618;28;20117;-69
2023/07/04 09:36:37;;;;;;;5.72;4.05;;;;;;;;;;4995491;28;20053;-69
2023/07/04 09:39:04;;;;;;;8.10;4.47;;;;;;;;;;4978105;28;20065;-69
2023/07/04 09:41:31;;;;;;;9.27;4.93;;;;;;;;;;4978124;28;20022;-69
2023/07/04 09:44:11;;;;;;;5.28;4.07;;;;;;;;;;4995347;28;20022;-69
2023/07/04 09:46:37;;;;;;;4.10;3.05;;;;;;;;;;4996304;28;20494;-69
2023/07/04 09:49:21;;;;;;;8.52;4.00;;;;;;;;;;4961978;28;20026;-69
2023/07/04 09:52:07;;;;;;;8.07;3.65;;;;;;;;;;4976634;28;20041;-69
2023/07/04 09:54:34;;;;;;;5.20;3.85;;;;;;;;;;4955084;28;20513;-69
2023/07/04 09:57:15;;;;;;;6.18;3.72;;;;;;;;;;4976241;28;20117;-69
2023/07/04 09:59:40;;;;;;;;;;;;;;;;;;4959206;28;20034;-70
2023/07/04 10:02:17;;;;;;;4.45;3.42;;;;;;;;;;4975982;28;19906;-69
2023/07/04 10:04:46;;;;;;;8.18;3.78;;;;;;;;;;4976366;28;20042;-68
2023/07/04 10:07:13;;;;;;;6.70;3.60;;;;;;;;;;4975947;28;20047;-68
2023/07/04 10:09:52;;;;;;;2.53;2.25;;;;;;;;;;4975657;28;20082;-69
2023/07/04 10:12:18;;;;;;;4.93;3.80;;;;;;;;;;4975824;28;20055;-69
2023/07/04 10:14:45;;;;;;;4.32;3.17;;;;;;;;;;4975935;28;20041;-69
2023/07/04 10:17:16;;;;;;;5.15;3.95;;;;;;;;;;4959290;28;20488;-69
2023/07/04 10:19:43;;;;;;;5.90;2.65;;;;;;;;;;4942833;28;20093;-70
2023/07/04 10:22:08;;;;;;;8.07;4.20;;;;;;;;;;4975682;28;20031;-69
2023/07/04 10:24:34;;;;;;;7.32;4.38;;;;;;;;;;4978340;28;20039;-69
2023/07/04 10:27:11;;;;;;;5.60;2.70;;;;;;;;;;4991261;28;20033;-69
2023/07/04 10:29:40;;;;;;;4.50;3.70;;;;;;;;;;4995436;28;20030;-69
2023/07/04 10:32:08;;;;;;;8.63;4.60;;;;;;;;;;4995309;28;20038;-69
2023/07/04 10:34:35;;;;;;;8.00;4.03;;;;;;;;;;4994802;28;20034;-69
2023/07/04 10:37:01;;;;;;;6.03;3.42;;;;;;;;;;4994769;28;20064;-69
2023/07/04 10:39:27;;;;;;;7.20;5.10;;;;;;;;;;4977283;28;20062;-69
2023/07/04 10:41:58;;;;;;;4.63;3.47;;;;;;;;;;4994171;28;20038;-69
2023/07/04 10:44:27;;;;;;;8.00;4.93;;;;;;;;;;4972008;28;20039;-69
2023/07/04 10:46:57;;;;;;;9.00;4.75;;;;;;;;;;4975379;28;20038;-66
2023/07/04 10:49:24;;;;;;;;;;;;;;;;;;4958766;28;20114;-66
2023/07/04 10:51:52;;;;;;;9.52;7.18;;;;;;;;;;4975710;28;19910;-66
2023/07/04 10:54:19;;;;;;;8.85;5.28;;;;;;;;;;4975033;28;20109;-65
2023/07/04 10:56:48;;;;;;;8.68;5.70;;;;;;;;;;4974447;28;20031;-65
2023/07/04 10:59:17;;;;;;;7.40;5.45;;;;;;;;;;4957398;28;20031;-66
2023/07/04 11:02:04;;;;;;;9.10;6.07;;;;;;;;;;4974769;28;20031;-66
2023/07/04 11:04:33;;;;;;;8.57;6.07;;;;;;;;;;4975111;28;20109;-65
2023/07/04 11:07:03;;;;;;;8.18;5.50;;;;;;;;;;4974928;28;20448;-65
2023/07/04 11:09:33;;;;;;;7.35;5.45;;;;;;;;;;4975403;28;20027;-65
2023/07/04 11:11:58;;;;;;;;;;;;;;;;;;4958376;28;20494;-65
2023/07/04 11:14:25;;;;;;;9.85;6.13;;;;;;;;;;4975328;28;19910;-65
2023/07/04 11:16:54;;;;;;;9.70;6.10;;;;;;;;;;4958137;28;20372;-69
2023/07/04 11:19:25;;;;;;;10.32;6.72;;;;;;;;;;4975264;28;20041;-69
2023/07/04 11:22:01;;;;;;;3.47;2.72;;;;;;;;;;4975223;28;20026;-69
2023/07/04 11:24:33;;;;;;;9.52;6.70;;;;;;;;;;4974963;28;20041;-69
2023/07/04 11:27:00;;;;;;;10.85;7.43;;;;;;;;;;4974769;28;20031;-69
2023/07/04 11:29:44;;;;;;;8.82;5.82;;;;;;;;;;4975049;28;20557;-65
2023/07/04 11:32:10;;;;;;;12.13;7.97;;;;;;;;;;4974825;28;20086;-65
2023/07/04 11:35:00;;;;;;;11.20;7.45;;;;;;;;;;4957999;28;20031;-65
2023/07/04 11:37:28;;;;;;;10.43;7.93;;;;;;;;;;4975112;28;20153;-65
2023/07/04 11:42:58;;;;;;;10.63;7.60;;;;;;;;;;5008195;23;20055;-69
2023/07/04 11:45:25;;;;;;;7.85;6.68;;;;;;;;;;5053258;28;20041;-69
2023/07/04 11:47:59;;;;;;;6.28;5.32;;;;;;;;;;5053184;28;20389;-69
2023/07/04 11:50:35;;;;;;;8.07;6.30;;;;;;;;;;5034520;28;20104;-69
2023/07/04 11:53:02;;;;;;;6.45;5.10;;;;;;;;;;5034567;28;20040;-69
2023/07/04 11:55:38;;;;;;;10.23;6.95;;;;;;;;;;5052667;28;20132;-69
2023/07/04 11:58:06;;;;;;;10.45;7.00;;;;;;;;;;5034222;28;20053;-69
2023/07/04 12:00:32;;;;;;;9.43;6.40;;;;;;;;;;5052345;28;20029;-69
2023/07/04 12:03:04;;;;;;;9.63;7.85;;;;;;;;;;5052274;28;20543;-69
2023/07/04 12:05:32;;;;;;;8.95;5.95;;;;;;;;;;5051995;28;20540;-72
2023/07/04 12:08:01;;;;;;;6.07;4.80;;;;;;;;;;5052238;28;20029;-70
2023/07/04 12:10:28;;;;;;;7.30;4.95;;;;;;;;;;5017716;28;20496;-70
2023/07/04 12:13:01;;;;;;;6.78;5.32;;;;;;;;;;5052310;28;20045;-71
2023/07/04 12:15:28;;;;;;;7.57;6.13;;;;;;;;;;5034210;28;20040;-71
2023/07/04 12:17:58;;;;;;;8.82;5.82;;;;;;;;;;5052004;28;20037;-70
2023/07/04 12:20:23;;;;;;;;;;;;;;;;;;5034680;28;20055;-70
2023/07/04 12:22:51;;;;;;;7.07;5.50;;;;;;;;;;5034234;28;20372;-70
2023/07/04 12:25:21;;;;;;;6.32;5.20;;;;;;;;;;5034306;28;20427;-70
2023/07/04 12:27:47;;;;;;;7.07;5.78;;;;;;;;;;5051981;28;20119;-67
2023/07/04 12:30:13;;;;;;;7.22;5.55;;;;;;;;;;5034035;28;20041;-70
2023/07/04 12:32:39;;;;;;;6.03;5.18;;;;;;;;;;5051936;28;20381;-69
2023/07/04 12:35:06;;;;;;;5.60;5.05;;;;;;;;;;5051776;28;20033;-69
2023/07/04 12:37:39;;;;;;;6.10;4.82;;;;;;;;;;5034013;28;20033;-71
2023/07/04 12:40:13;;;;;;;6.20;5.00;;;;;;;;;;5051800;28;20041;-70
2023/07/04 12:42:39;;;;;;;5.60;4.85;;;;;;;;;;5051686;28;20045;-70
2023/07/04 12:45:09;;;;;;;6.10;4.68;;;;;;;;;;5017424;28;20033;-70
2023/07/04 12:47:35;;;;;;;8.27;4.60;;;;;;;;;;5034045;28;20389;-70
2023/07/04 12:50:01;;;;;;;4.40;3.67;;;;;;;;;;5051750;28;20092;-70
2023/07/04 12:52:35;;;;;;;4.05;3.60;;;;;;;;;;5051771;28;20131;-70
2023/07/04 12:55:02;;;;;;;7.60;4.63;;;;;;;;;;5034234;28;20734;-70
2023/07/04 12:57:28;;;;;;;5.07;3.95;;;;;;;;;;5052071;28;20040;-71
2023/07/04 13:00:09;;;;;;;5.53;3.28;;;;;;;;;;5052628;28;20033;-70
2023/07/04 13:02:35;;;;;;;3.50;3.20;;;;;;;;;;5034228;28;20087;-70
2023/07/04 13:05:03;;;;;;;3.40;3.05;;;;;;;;;;5034145;28;20040;-71
2023/07/04 13:07:28;;;;;;;4.65;3.63;;;;;;;;;;5034230;28;20392;-70
2023/07/04 13:09:55;;;;;;;6.15;3.88;;;;;;;;;;5051950;28;20031;-70
2023/07/04 13:12:28;;;;;;;3.70;3.40;;;;;;;;;;5051822;28;20431;-69
2023/07/04 13:15:11;;;;;;;4.65;3.40;;;;;;;;;;5051805;28;20476;-69
2023/07/04 13:17:37;;;;;;;5.15;3.38;;;;;;;;;;5033967;28;20611;-69
2023/07/04 13:20:15;;;;;;;3.75;2.90;;;;;;;;;;5037592;28;20111;-69
2023/07/04 13:22:40;;;;;;;3.50;3.03;;;;;;;;;;5055581;28;20086;-71
2023/07/04 13:25:32;;;;;;;3.38;3.00;;;;;;;;;;5055801;28;20029;-70
2023/07/04 13:28:06;;;;;;;2.65;2.42;;;;;;;;;;5037525;28;20033;-70
2023/07/04 13:30:31;;;;;;;3.22;2.67;;;;;;;;;;5037522;28;20388;-70
2023/07/04 13:32:57;;;;;;;2.47;2.28;;;;;;;;;;5055320;28;20029;-70
2023/07/04 13:35:28;;;;;;;4.68;2.67;;;;;;;;;;5037525;28;20036;-70
2023/07/04 13:37:53;;;;;;;;;;;;;;;;;;5037779;28;20037;-70
2023/07/04 13:40:18;;;;;;;3.28;2.50;;;;;;;;;;5055192;28;19955;-69
2023/07/04 13:43:04;;;;;;;3.60;2.42;;;;;;;;;;5037060;28;20041;-70
2023/07/04 13:45:29;;;;;;;2.13;2.03;;;;;;;;;;5037040;28;20059;-70
2023/07/04 13:47:55;;;;;;;2.72;2.53;;;;;;;;;;5054951;28;20480;-70
2023/07/04 13:50:20;;;;;;;2.47;2.28;;;;;;;;;;5037245;28;20378;-65
2023/07/04 13:52:46;;;;;;;2.42;2.22;;;;;;;;;;5055196;28;20029;-65
2023/07/04 13:55:12;;;;;;;2.33;2.13;;;;;;;;;;5055668;28;20664;-64
2023/07/04 13:57:50;;;;;;;2.90;2.60;;;;;;;;;;5055169;28;20096;-64
2023/07/04 14:00:16;;;;;;;4.63;2.63;;;;;;;;;;5020575;28;20450;-63
2023/07/04 14:02:43;;;;;;;3.20;2.22;;;;;;;;;;5037103;28;20072;-70
2023/07/04 14:05:08;;;;;;;3.03;1.73;;;;;;;;;;5055264;28;20043;-70
2023/07/04 14:07:33;;;;;;;2.50;2.20;;;;;;;;;;5055064;28;20021;-70
2023/07/04 14:09:59;;;;;;;2.30;2.00;;;;;;;;;;5054511;28;20037;-70
2023/07/04 14:12:24;;;;;;;2.00;1.90;;;;;;;;;;5036594;28;20039;-69
2023/07/04 14:14:49;;;;;;;1.90;1.80;;;;;;;;;;5043312;28;20124;-64
2023/07/04 14:17:15;;;;;;;1.75;1.65;;;;;;;;;;5017293;28;20065;-70
2023/07/04 14:19:40;;;;;;;2.67;2.08;;;;;;;;;;5016811;28;20099;-69
2023/07/04 14:22:06;;;;;;;1.70;1.60;;;;;;;;;;5034828;28;20087;-69
2023/07/04 14:24:32;;;;;;;2.35;2.10;;;;;;;;;;5035058;28;20083;-69
2023/07/04 14:26:58;;;;;;;2.63;2.00;;;;;;;;;;5000851;28;20094;-69
2023/07/04 14:29:23;;;;;;;3.50;1.98;;;;;;;;;;5017112;28;20120;-69
2023/07/04 14:31:49;;;;;;;3.28;1.73;;;;;;;;;;5035045;28;20394;-69
2023/07/04 14:34:14;;;;;;;2.30;2.10;;;;;;;;;;5034730;28;20478;-69
2023/07/04 14:36:40;;;;;;;2.30;2.10;;;;;;;;;;5034867;28;20053;-69
2023/07/04 14:39:05;;;;;;;2.53;1.63;;;;;;;;;;5034898;28;20369;-69
2023/07/04 14:41:31;;;;;;;3.55;2.17;;;;;;;;;;5013566;28;20045;-69
2023/07/04 14:43:57;;;;;;;2.33;2.00;;;;;;;;;;5013728;28;20371;-69
2023/07/04 14:46:22;;;;;;;2.28;2.08;;;;;;;;;;5013548;28;20044;-70
2023/07/04 14:48:48;;;;;;;4.30;2.25;;;;;;;;;;4997344;28;20022;-69